North River — WYR2549 — position and weather

sailwx.info

Track history (hours):
 
Tides and Currents Weather Stations Pressure Air Temp Water Temp Dewpoint Dewpoint Depression Visibility Wind Speed Wind Dir Waves Ship Positions

North River

Owner: CITY OF NEW YORK, Brooklyn, NY. More information available from US FCC via Universal Licensing System and Coast Guard Vessel Documentation Center.

Last reported at 2016-May-09 21:29 UTC. Time now 2016-May-26 10:43 UTC.
Position N 40°47' W 073°56'.
Warning: this ship's position is 16 days out of date.

Length 78 m.

Type: Tanker. MMSI: 367074110.

Date/timePositionNaut miles runAvg speedWind from/ knotsBaromVisibWave heightAir tempDewpointWater temp
2016-May-09 21:29N 40°47' W 073°56'3 3.0
2016-May-09 20:33N 40°44' W 073°58'0 0.0
2016-May-09 19:34N 40°44' W 073°58'0 0.0
2016-May-09 18:34N 40°44' W 073°58'0 0.0
2016-May-09 17:34N 40°44' W 073°58'5 4.6
2016-May-09 16:33N 40°40' W 074°01'2 1.9
2016-May-09 15:33N 40°39' W 074°02'0 0.0
2016-May-09 14:34N 40°39' W 074°02'3 3.1
2016-May-09 13:34N 40°42' W 074°00'  
2016-May-05 12:07N 40°48' W 073°51'2 0.1
2016-May-04 15:07N 40°48' W 073°53'5 0.2
2016-May-03 16:33N 40°45' W 073°58'7 6.7
2016-May-03 15:33N 40°39' W 074°02'0 0.0
2016-May-03 14:33N 40°39' W 074°02'0 0.0
2016-May-03 13:33N 40°39' W 074°02'6 6.1
2016-May-03 12:34N 40°44' W 073°58'3 0.2
2016-May-02 19:22N 40°47' W 073°56'1012.6
2016-May-02 18:33N 40°38' W 074°03'7 6.1
2016-May-02 17:29N 40°33' W 073°56'5 5.8
2016-May-02 16:33N 40°35' W 073°50'0 0.0
2016-May-02 15:33N 40°35' W 073°50'0 0.0
2016-May-02 14:33N 40°35' W 073°50'9 7.2
2016-May-02 13:22N 40°34' W 074°01'1113.3
2016-May-02 12:33N 40°45' W 073°58'2 0.1
2016-May-01 15:33N 40°45' W 074°01'2 0.6
2016-May-01 12:33N 40°43' W 074°01'2 0.2
2016-Apr-30 22:33N 40°43' W 073°58'8 8.2
2016-Apr-30 21:33N 40°38' W 074°08'0 0.0
2016-Apr-30 20:33N 40°38' W 074°08'0 0.0
2016-Apr-30 19:33N 40°38' W 074°08'0 0.0
2016-Apr-30 18:33N 40°38' W 074°08'0 0.0
2016-Apr-30 17:33N 40°38' W 074°08'0 0.0
2016-Apr-30 16:32N 40°38' W 074°08'3 2.9
2016-Apr-30 15:33N 40°39' W 074°04'1 1.4
2016-Apr-30 14:33N 40°39' W 074°02'0 0.0
2016-Apr-30 13:33N 40°39' W 074°02'9 9.3
2016-Apr-30 12:33N 40°47' W 073°56'  
Track history (hours):
 
Tides and Currents Weather Stations Pressure Air Temp Water Temp Dewpoint Dewpoint Depression Visibility Wind Speed Wind Dir Waves Ship Positions

North River

Owner: CITY OF NEW YORK, Brooklyn, NY. More information available from US FCC via Universal Licensing System and Coast Guard Vessel Documentation Center.

Last reported at 2016-May-09 21:29 UTC. Time now 2016-May-26 10:43 UTC.
Position N 40°47' W 073°56'.
Warning: this ship's position is 16 days out of date.

Length 78 m.

Type: Tanker. MMSI: 367074110.

Date/timePositionNaut miles runAvg speedWind from/ knotsBaromVisibWave heightAir tempDewpointWater temp
2016-May-09 21:29N 40°47' W 073°56'3 3.0
2016-May-09 20:33N 40°44' W 073°58'0 0.0
2016-May-09 19:34N 40°44' W 073°58'0 0.0
2016-May-09 18:34N 40°44' W 073°58'0 0.0
2016-May-09 17:34N 40°44' W 073°58'5 4.6
2016-May-09 16:33N 40°40' W 074°01'2 1.9
2016-May-09 15:33N 40°39' W 074°02'0 0.0
2016-May-09 14:34N 40°39' W 074°02'3 3.1
2016-May-09 13:34N 40°42' W 074°00'  
2016-May-05 12:07N 40°48' W 073°51'2 0.1
2016-May-04 15:07N 40°48' W 073°53'5 0.2
2016-May-03 16:33N 40°45' W 073°58'7 6.7
2016-May-03 15:33N 40°39' W 074°02'0 0.0
2016-May-03 14:33N 40°39' W 074°02'0 0.0
2016-May-03 13:33N 40°39' W 074°02'6 6.1
2016-May-03 12:34N 40°44' W 073°58'3 0.2
2016-May-02 19:22N 40°47' W 073°56'1012.6
2016-May-02 18:33N 40°38' W 074°03'7 6.1
2016-May-02 17:29N 40°33' W 073°56'5 5.8
2016-May-02 16:33N 40°35' W 073°50'0 0.0
2016-May-02 15:33N 40°35' W 073°50'0 0.0
2016-May-02 14:33N 40°35' W 073°50'9 7.2
2016-May-02 13:22N 40°34' W 074°01'1113.3
2016-May-02 12:33N 40°45' W 073°58'2 0.1
2016-May-01 15:33N 40°45' W 074°01'2 0.6
2016-May-01 12:33N 40°43' W 074°01'2 0.2
2016-Apr-30 22:33N 40°43' W 073°58'8 8.2
2016-Apr-30 21:33N 40°38' W 074°08'0 0.0
2016-Apr-30 20:33N 40°38' W 074°08'0 0.0
2016-Apr-30 19:33N 40°38' W 074°08'0 0.0
2016-Apr-30 18:33N 40°38' W 074°08'0 0.0
2016-Apr-30 17:33N 40°38' W 074°08'0 0.0
2016-Apr-30 16:32N 40°38' W 074°08'3 2.9
2016-Apr-30 15:33N 40°39' W 074°04'1 1.4
2016-Apr-30 14:33N 40°39' W 074°02'0 0.0
2016-Apr-30 13:33N 40°39' W 074°02'9 9.3
2016-Apr-30 12:33N 40°47' W 073°56'  

Dump ship's entire track history